< < Back
Terminal Aerodrome Forecast


Current Version              Previous Versions:   1  2  3  4  5  6  7  8  9  

Terminal Aerodrome Forecast

038
FTUS42 KTAE 151700
TAFVLD
TAF
KVLD 151723Z 1518/1618 19006KT P6SM VCTS SCT040CB BKN250
      TEMPO 1518/1522 2SM TSRA BKN025CB
     FM160000 21002KT P6SM OVC250
     FM161100 00000KT 4SM BR BKN004
     FM161500 25002KT P6SM BKN250=



Latest METAR

554
SAUS70 KWBC 160500 RRK
MTRVLD
METAR KVLD 160453Z AUTO 15003KT 10SM FEW023 BKN090 24/23 A3011 RMK AO2
SLP200 T02390233 403280222


USA.gov is the U.S. government's official web portal to all federal, state and local government web resources and services.